Rechercher aéroport 
image banner adimage banner adimage banner ad
image banner ad

29CL - Childrens Hospital Los Angeles

Situé à Los Angeles, United States

ICAO - 29CL, IATA -

Données fournies par Airmate  

Information générale

Coordonnées: N34°5'50" W118°17'27"
Élévation : 500 feet MSL.
Variation magnétique : 14° East
Voir autres Aéroports à California

Données opérationnelles

Special qualification required
Heure actuelle UTC:
Heure actuelle locale:
Météo à : KBUR - Bob Hope ( 13 km )
METAR: KBUR 300153Z 12009KT 10SM CLR 28/13 A2984 RMK AO2 SLP091 T02780128 $
TAF: KBUR 292348Z 3000/3024 17009KT P6SM SKC FM300200 13006KT P6SM SKC FM300800 VRB03KT P6SM SKC FM301700 16005KT P6SM SKC FM302100 18009KT P6SM SKC
Voir NOTAMs / SUP AIP / TFR affectant cet aéroport [VIEW]
Fréquences de communication: [VIEW]

Pistes:

Coordonnées de l'aéroport

Adresse: Los Angeles United States

Vue satellite de 29CL